sensor_id;sensor_type;location;lat;lon;timestamp;temperature;humidity
15115;DHT22;7658;51.456;7.622;2022-09-16T00:01:17;12.20;99.90
15115;DHT22;7658;51.456;7.622;2022-09-16T00:03:44;12.20;99.90
15115;DHT22;7658;51.456;7.622;2022-09-16T00:06:22;12.20;99.90
15115;DHT22;7658;51.456;7.622;2022-09-16T00:08:48;12.20;99.90
15115;DHT22;7658;51.456;7.622;2022-09-16T00:11:16;12.20;99.90
15115;DHT22;7658;51.456;7.622;2022-09-16T00:13:42;12.20;99.90
15115;DHT22;7658;51.456;7.622;2022-09-16T00:16:15;12.20;99.90
15115;DHT22;7658;51.456;7.622;2022-09-16T00:18:41;12.20;99.90
15115;DHT22;7658;51.456;7.622;2022-09-16T00:21:08;12.20;99.90
15115;DHT22;7658;51.456;7.622;2022-09-16T00:23:35;12.20;99.90
15115;DHT22;7658;51.456;7.622;2022-09-16T00:26:01;12.10;99.90
15115;DHT22;7658;51.456;7.622;2022-09-16T00:28:27;12.10;99.90
15115;DHT22;7658;51.456;7.622;2022-09-16T00:30:53;12.10;99.90
15115;DHT22;7658;51.456;7.622;2022-09-16T00:33:19;12.10;99.90
15115;DHT22;7658;51.456;7.622;2022-09-16T00:35:45;12.20;99.90
15115;DHT22;7658;51.456;7.622;2022-09-16T00:38:12;12.10;99.90
15115;DHT22;7658;51.456;7.622;2022-09-16T00:40:48;12.10;99.90
15115;DHT22;7658;51.456;7.622;2022-09-16T00:43:16;12.10;99.90
15115;DHT22;7658;51.456;7.622;2022-09-16T00:45:46;12.10;99.90
15115;DHT22;7658;51.456;7.622;2022-09-16T00:48:20;12.10;99.90
15115;DHT22;7658;51.456;7.622;2022-09-16T00:50:54;12.20;99.90
15115;DHT22;7658;51.456;7.622;2022-09-16T00:53:27;12.20;99.90
15115;DHT22;7658;51.456;7.622;2022-09-16T00:55:56;12.20;99.90
15115;DHT22;7658;51.456;7.622;2022-09-16T01:00:50;12.10;99.90
15115;DHT22;7658;51.456;7.622;2022-09-16T01:03:16;12.10;99.90
15115;DHT22;7658;51.456;7.622;2022-09-16T01:05:43;12.10;99.90
15115;DHT22;7658;51.456;7.622;2022-09-16T01:08:09;12.10;99.90
15115;DHT22;7658;51.456;7.622;2022-09-16T01:10:35;12.10;99.90
15115;DHT22;7658;51.456;7.622;2022-09-16T01:13:05;12.10;99.90
15115;DHT22;7658;51.456;7.622;2022-09-16T01:15:54;12.10;99.90
15115;DHT22;7658;51.456;7.622;2022-09-16T01:24:18;12.10;99.90
15115;DHT22;7658;51.456;7.622;2022-09-16T01:40:49;12.10;99.90
15115;DHT22;7658;51.456;7.622;2022-09-16T01:43:39;12.10;99.90
15115;DHT22;7658;51.456;7.622;2022-09-16T01:46:20;12.10;99.90
15115;DHT22;7658;51.456;7.622;2022-09-16T01:49:01;12.10;99.90
15115;DHT22;7658;51.456;7.622;2022-09-16T01:51:45;12.10;99.90
15115;DHT22;7658;51.456;7.622;2022-09-16T01:54:22;12.10;99.90
15115;DHT22;7658;51.456;7.622;2022-09-16T01:57:04;12.10;99.90
15115;DHT22;7658;51.456;7.622;2022-09-16T01:59:48;12.10;99.90
15115;DHT22;7658;51.456;7.622;2022-09-16T02:02:23;12.10;99.90
15115;DHT22;7658;51.456;7.622;2022-09-16T02:04:53;12.10;99.90
15115;DHT22;7658;51.456;7.622;2022-09-16T02:07:26;12.10;99.90
15115;DHT22;7658;51.456;7.622;2022-09-16T02:10:45;12.10;99.90
15115;DHT22;7658;51.456;7.622;2022-09-16T02:12:53;12.10;99.90
15115;DHT22;7658;51.456;7.622;2022-09-16T02:15:22;12.10;99.90
15115;DHT22;7658;51.456;7.622;2022-09-16T02:17:56;12.10;99.90
15115;DHT22;7658;51.456;7.622;2022-09-16T02:20:26;12.10;99.90
15115;DHT22;7658;51.456;7.622;2022-09-16T02:23:06;12.10;99.90
15115;DHT22;7658;51.456;7.622;2022-09-16T02:25:35;12.10;99.90
15115;DHT22;7658;51.456;7.622;2022-09-16T02:28:07;12.10;99.90
15115;DHT22;7658;51.456;7.622;2022-09-16T02:30:40;12.10;99.90
15115;DHT22;7658;51.456;7.622;2022-09-16T02:33:08;12.00;99.90
15115;DHT22;7658;51.456;7.622;2022-09-16T02:35:37;12.00;99.90
15115;DHT22;7658;51.456;7.622;2022-09-16T02:38:10;12.00;99.90
15115;DHT22;7658;51.456;7.622;2022-09-16T02:40:43;12.00;99.90
15115;DHT22;7658;51.456;7.622;2022-09-16T02:43:10;12.00;99.90
15115;DHT22;7658;51.456;7.622;2022-09-16T02:48:27;12.00;99.90
15115;DHT22;7658;51.456;7.622;2022-09-16T02:51:10;12.00;99.90
15115;DHT22;7658;51.456;7.622;2022-09-16T02:53:55;12.00;99.90
15115;DHT22;7658;51.456;7.622;2022-09-16T02:56:35;12.00;99.90
15115;DHT22;7658;51.456;7.622;2022-09-16T02:59:02;12.00;99.90
15115;DHT22;7658;51.456;7.622;2022-09-16T03:01:30;12.00;99.90
15115;DHT22;7658;51.456;7.622;2022-09-16T03:03:58;12.00;99.90
15115;DHT22;7658;51.456;7.622;2022-09-16T03:06:25;12.00;99.90
15115;DHT22;7658;51.456;7.622;2022-09-16T03:08:54;12.10;99.90
15115;DHT22;7658;51.456;7.622;2022-09-16T03:19:37;12.00;99.90
15115;DHT22;7658;51.456;7.622;2022-09-16T03:22:06;12.00;99.90
15115;DHT22;7658;51.456;7.622;2022-09-16T03:30:17;12.00;99.90
15115;DHT22;7658;51.456;7.622;2022-09-16T03:32:53;12.00;99.90
15115;DHT22;7658;51.456;7.622;2022-09-16T03:35:32;12.00;99.90
15115;DHT22;7658;51.456;7.622;2022-09-16T03:38:02;12.00;99.90
15115;DHT22;7658;51.456;7.622;2022-09-16T03:40:30;12.00;99.90
15115;DHT22;7658;51.456;7.622;2022-09-16T03:42:57;12.00;99.90
15115;DHT22;7658;51.456;7.622;2022-09-16T03:45:23;12.00;99.90
15115;DHT22;7658;51.456;7.622;2022-09-16T03:47:51;11.90;99.90
15115;DHT22;7658;51.456;7.622;2022-09-16T03:50:18;11.90;99.90
15115;DHT22;7658;51.456;7.622;2022-09-16T03:52:45;11.90;99.90
15115;DHT22;7658;51.456;7.622;2022-09-16T03:55:10;11.90;99.90
15115;DHT22;7658;51.456;7.622;2022-09-16T03:57:36;11.90;99.90
15115;DHT22;7658;51.456;7.622;2022-09-16T04:00:04;11.90;99.90
15115;DHT22;7658;51.456;7.622;2022-09-16T04:02:31;11.90;99.90
15115;DHT22;7658;51.456;7.622;2022-09-16T04:04:57;11.90;99.90
15115;DHT22;7658;51.456;7.622;2022-09-16T04:07:22;12.00;99.90
15115;DHT22;7658;51.456;7.622;2022-09-16T04:09:48;12.00;99.90
15115;DHT22;7658;51.456;7.622;2022-09-16T04:12:14;11.90;99.90
15115;DHT22;7658;51.456;7.622;2022-09-16T04:14:40;11.90;99.90
15115;DHT22;7658;51.456;7.622;2022-09-16T04:17:05;11.90;99.90
15115;DHT22;7658;51.456;7.622;2022-09-16T04:19:31;11.90;99.90
15115;DHT22;7658;51.456;7.622;2022-09-16T04:21:57;11.80;99.90
15115;DHT22;7658;51.456;7.622;2022-09-16T04:24:23;11.80;99.90
15115;DHT22;7658;51.456;7.622;2022-09-16T04:26:49;11.90;99.90
15115;DHT22;7658;51.456;7.622;2022-09-16T04:29:14;11.90;99.90
15115;DHT22;7658;51.456;7.622;2022-09-16T04:31:42;11.80;99.90
15115;DHT22;7658;51.456;7.622;2022-09-16T04:34:08;11.80;99.90
15115;DHT22;7658;51.456;7.622;2022-09-16T04:36:36;11.80;99.90
15115;DHT22;7658;51.456;7.622;2022-09-16T04:39:04;11.80;99.90
15115;DHT22;7658;51.456;7.622;2022-09-16T04:41:30;11.80;99.90
15115;DHT22;7658;51.456;7.622;2022-09-16T04:43:57;11.80;99.90
15115;DHT22;7658;51.456;7.622;2022-09-16T04:46:25;11.90;99.90
15115;DHT22;7658;51.456;7.622;2022-09-16T04:48:52;11.80;99.90
15115;DHT22;7658;51.456;7.622;2022-09-16T04:51:20;11.80;99.90
15115;DHT22;7658;51.456;7.622;2022-09-16T04:53:47;11.80;99.90
15115;DHT22;7658;51.456;7.622;2022-09-16T04:56:25;11.80;99.90
15115;DHT22;7658;51.456;7.622;2022-09-16T04:58:58;11.70;99.90
15115;DHT22;7658;51.456;7.622;2022-09-16T05:01:30;11.60;99.90
15115;DHT22;7658;51.456;7.622;2022-09-16T05:03:58;11.50;99.90
15115;DHT22;7658;51.456;7.622;2022-09-16T05:06:31;11.50;99.90
15115;DHT22;7658;51.456;7.622;2022-09-16T05:08:57;11.50;99.90
15115;DHT22;7658;51.456;7.622;2022-09-16T05:11:30;11.50;99.90
15115;DHT22;7658;51.456;7.622;2022-09-16T05:13:58;11.60;99.90
15115;DHT22;7658;51.456;7.622;2022-09-16T05:16:24;11.50;99.90
15115;DHT22;7658;51.456;7.622;2022-09-16T05:18:54;11.50;99.90
15115;DHT22;7658;51.456;7.622;2022-09-16T05:21:21;11.50;99.90
15115;DHT22;7658;51.456;7.622;2022-09-16T05:23:48;11.40;99.90
15115;DHT22;7658;51.456;7.622;2022-09-16T05:26:19;11.40;99.90
15115;DHT22;7658;51.456;7.622;2022-09-16T05:28:45;11.50;99.90
15115;DHT22;7658;51.456;7.622;2022-09-16T05:31:22;11.50;99.90
15115;DHT22;7658;51.456;7.622;2022-09-16T05:33:57;11.50;99.90
15115;DHT22;7658;51.456;7.622;2022-09-16T05:36:25;11.60;99.90
15115;DHT22;7658;51.456;7.622;2022-09-16T05:38:51;11.60;99.90
15115;DHT22;7658;51.456;7.622;2022-09-16T05:41:17;11.60;99.90
15115;DHT22;7658;51.456;7.622;2022-09-16T05:43:43;11.60;99.90
15115;DHT22;7658;51.456;7.622;2022-09-16T05:46:12;11.60;99.90
15115;DHT22;7658;51.456;7.622;2022-09-16T05:48:40;11.70;99.90
15115;DHT22;7658;51.456;7.622;2022-09-16T05:51:08;11.60;99.90
15115;DHT22;7658;51.456;7.622;2022-09-16T05:53:35;11.60;99.90
15115;DHT22;7658;51.456;7.622;2022-09-16T05:56:03;11.60;99.90
15115;DHT22;7658;51.456;7.622;2022-09-16T05:58:31;11.60;99.90
15115;DHT22;7658;51.456;7.622;2022-09-16T06:01:17;11.70;99.90
15115;DHT22;7658;51.456;7.622;2022-09-16T06:03:44;11.60;99.90
15115;DHT22;7658;51.456;7.622;2022-09-16T06:06:24;11.60;99.90
15115;DHT22;7658;51.456;7.622;2022-09-16T06:08:52;11.70;99.90
15115;DHT22;7658;51.456;7.622;2022-09-16T06:11:18;11.70;99.90
15115;DHT22;7658;51.456;7.622;2022-09-16T06:13:44;11.70;99.90
15115;DHT22;7658;51.456;7.622;2022-09-16T06:16:10;11.70;99.90
15115;DHT22;7658;51.456;7.622;2022-09-16T06:18:38;11.70;99.90
15115;DHT22;7658;51.456;7.622;2022-09-16T06:21:10;11.60;99.90
15115;DHT22;7658;51.456;7.622;2022-09-16T06:23:36;11.60;99.90
15115;DHT22;7658;51.456;7.622;2022-09-16T06:26:13;11.70;99.90
15115;DHT22;7658;51.456;7.622;2022-09-16T06:28:40;11.70;99.90
15115;DHT22;7658;51.456;7.622;2022-09-16T06:31:06;11.70;99.90
15115;DHT22;7658;51.456;7.622;2022-09-16T06:33:33;11.80;99.90
15115;DHT22;7658;51.456;7.622;2022-09-16T06:36:20;11.90;99.90
15115;DHT22;7658;51.456;7.622;2022-09-16T06:38:46;11.90;99.90
15115;DHT22;7658;51.456;7.622;2022-09-16T06:41:13;12.00;99.90
15115;DHT22;7658;51.456;7.622;2022-09-16T06:43:41;12.00;99.90
15115;DHT22;7658;51.456;7.622;2022-09-16T06:46:09;12.00;99.90
15115;DHT22;7658;51.456;7.622;2022-09-16T06:48:38;12.00;99.90
15115;DHT22;7658;51.456;7.622;2022-09-16T06:51:14;12.10;99.90
15115;DHT22;7658;51.456;7.622;2022-09-16T06:53:41;12.10;99.90
15115;DHT22;7658;51.456;7.622;2022-09-16T06:56:09;12.20;99.90
15115;DHT22;7658;51.456;7.622;2022-09-16T06:58:37;12.30;99.90
15115;DHT22;7658;51.456;7.622;2022-09-16T07:01:12;12.40;99.90
15115;DHT22;7658;51.456;7.622;2022-09-16T07:03:41;12.50;99.90
15115;DHT22;7658;51.456;7.622;2022-09-16T07:06:08;12.50;99.90
15115;DHT22;7658;51.456;7.622;2022-09-16T07:08:35;12.50;99.90
15115;DHT22;7658;51.456;7.622;2022-09-16T07:11:03;12.40;99.90
15115;DHT22;7658;51.456;7.622;2022-09-16T07:13:29;12.50;99.90
15115;DHT22;7658;51.456;7.622;2022-09-16T07:15:59;12.50;99.90
15115;DHT22;7658;51.456;7.622;2022-09-16T07:18:26;12.50;99.90
15115;DHT22;7658;51.456;7.622;2022-09-16T07:20:58;12.60;99.90
15115;DHT22;7658;51.456;7.622;2022-09-16T07:23:24;12.60;99.90
15115;DHT22;7658;51.456;7.622;2022-09-16T07:26:06;12.70;99.90
15115;DHT22;7658;51.456;7.622;2022-09-16T07:28:32;12.80;99.90
15115;DHT22;7658;51.456;7.622;2022-09-16T07:31:04;12.80;99.90
15115;DHT22;7658;51.456;7.622;2022-09-16T07:33:31;12.80;99.90
15115;DHT22;7658;51.456;7.622;2022-09-16T07:36:00;12.80;99.90
15115;DHT22;7658;51.456;7.622;2022-09-16T07:38:28;12.70;99.90
15115;DHT22;7658;51.456;7.622;2022-09-16T07:40:54;12.60;99.90
15115;DHT22;7658;51.456;7.622;2022-09-16T07:43:20;12.60;99.90
15115;DHT22;7658;51.456;7.622;2022-09-16T07:45:45;12.60;99.90
15115;DHT22;7658;51.456;7.622;2022-09-16T07:48:11;12.60;99.90
15115;DHT22;7658;51.456;7.622;2022-09-16T07:50:37;12.60;99.90
15115;DHT22;7658;51.456;7.622;2022-09-16T07:53:03;12.70;99.90
15115;DHT22;7658;51.456;7.622;2022-09-16T07:55:28;12.60;99.90
15115;DHT22;7658;51.456;7.622;2022-09-16T07:57:54;12.50;99.90
15115;DHT22;7658;51.456;7.622;2022-09-16T08:00:20;12.40;99.90
15115;DHT22;7658;51.456;7.622;2022-09-16T08:02:46;12.10;99.90
15115;DHT22;7658;51.456;7.622;2022-09-16T08:05:12;11.90;99.90
15115;DHT22;7658;51.456;7.622;2022-09-16T08:07:38;11.90;99.90
15115;DHT22;7658;51.456;7.622;2022-09-16T08:10:04;11.80;99.90
15115;DHT22;7658;51.456;7.622;2022-09-16T08:12:30;11.80;99.90
15115;DHT22;7658;51.456;7.622;2022-09-16T08:14:58;11.80;99.90
15115;DHT22;7658;51.456;7.622;2022-09-16T08:17:25;12.00;99.90
15115;DHT22;7658;51.456;7.622;2022-09-16T08:19:51;12.10;99.90
15115;DHT22;7658;51.456;7.622;2022-09-16T08:22:17;12.20;99.90
15115;DHT22;7658;51.456;7.622;2022-09-16T08:24:43;12.30;99.90
15115;DHT22;7658;51.456;7.622;2022-09-16T08:27:08;12.30;99.90
15115;DHT22;7658;51.456;7.622;2022-09-16T08:29:34;12.40;99.90
15115;DHT22;7658;51.456;7.622;2022-09-16T08:32:00;12.50;99.90
15115;DHT22;7658;51.456;7.622;2022-09-16T08:34:27;12.50;99.90
15115;DHT22;7658;51.456;7.622;2022-09-16T08:36:57;12.50;99.90
15115;DHT22;7658;51.456;7.622;2022-09-16T08:39:24;12.60;99.90
15115;DHT22;7658;51.456;7.622;2022-09-16T08:44:53;12.80;99.90
15115;DHT22;7658;51.456;7.622;2022-09-16T08:49:55;12.80;99.90
15115;DHT22;7658;51.456;7.622;2022-09-16T08:52:32;12.90;99.90
15115;DHT22;7658;51.456;7.622;2022-09-16T08:57:48;13.10;99.90
15115;DHT22;7658;51.456;7.622;2022-09-16T09:00:17;13.20;99.90
15115;DHT22;7658;51.456;7.622;2022-09-16T09:02:55;13.30;99.90
15115;DHT22;7658;51.456;7.622;2022-09-16T09:11:06;13.30;99.90
15115;DHT22;7658;51.456;7.622;2022-09-16T09:16:49;13.20;99.90
15115;DHT22;7658;51.456;7.622;2022-09-16T09:30:22;14.00;99.90
15115;DHT22;7658;51.456;7.622;2022-09-16T09:38:19;14.40;99.90
15115;DHT22;7658;51.456;7.622;2022-09-16T09:41:10;14.20;99.90
15115;DHT22;7658;51.456;7.622;2022-09-16T09:46:39;14.20;99.90
15115;DHT22;7658;51.456;7.622;2022-09-16T09:52:21;14.20;99.90
15115;DHT22;7658;51.456;7.622;2022-09-16T09:54:51;14.40;99.90
15115;DHT22;7658;51.456;7.622;2022-09-16T10:00:09;14.50;99.90
15115;DHT22;7658;51.456;7.622;2022-09-16T10:02:41;14.50;99.90
15115;DHT22;7658;51.456;7.622;2022-09-16T10:05:23;14.10;99.90
15115;DHT22;7658;51.456;7.622;2022-09-16T10:07:52;13.90;99.90
15115;DHT22;7658;51.456;7.622;2022-09-16T10:10:22;13.70;99.90
15115;DHT22;7658;51.456;7.622;2022-09-16T10:12:48;13.70;99.90
15115;DHT22;7658;51.456;7.622;2022-09-16T10:15:28;13.90;99.90
15115;DHT22;7658;51.456;7.622;2022-09-16T10:17:58;14.00;99.90
15115;DHT22;7658;51.456;7.622;2022-09-16T10:20:30;14.30;99.90
15115;DHT22;7658;51.456;7.622;2022-09-16T10:23:12;14.40;99.90
15115;DHT22;7658;51.456;7.622;2022-09-16T10:25:38;14.50;99.90
15115;DHT22;7658;51.456;7.622;2022-09-16T10:28:19;14.80;99.90
15115;DHT22;7658;51.456;7.622;2022-09-16T10:30:56;14.90;99.90
15115;DHT22;7658;51.456;7.622;2022-09-16T10:33:40;15.10;99.90
15115;DHT22;7658;51.456;7.622;2022-09-16T10:36:08;15.10;99.90
15115;DHT22;7658;51.456;7.622;2022-09-16T10:38:42;15.10;99.90
15115;DHT22;7658;51.456;7.622;2022-09-16T10:41:18;15.20;99.90
15115;DHT22;7658;51.456;7.622;2022-09-16T10:44:30;15.30;99.90
15115;DHT22;7658;51.456;7.622;2022-09-16T10:47:00;15.40;99.90
15115;DHT22;7658;51.456;7.622;2022-09-16T10:49:46;15.30;99.90
15115;DHT22;7658;51.456;7.622;2022-09-16T10:52:20;15.50;99.90
15115;DHT22;7658;51.456;7.622;2022-09-16T10:54:46;15.90;99.90
15115;DHT22;7658;51.456;7.622;2022-09-16T11:00:10;15.70;99.90
15115;DHT22;7658;51.456;7.622;2022-09-16T11:02:41;15.60;99.90
15115;DHT22;7658;51.456;7.622;2022-09-16T11:24:24;12.50;99.90
15115;DHT22;7658;51.456;7.622;2022-09-16T11:35:36;12.00;99.90
15115;DHT22;7658;51.456;7.622;2022-09-16T11:38:12;12.10;99.90
15115;DHT22;7658;51.456;7.622;2022-09-16T11:41:02;12.40;99.90
15115;DHT22;7658;51.456;7.622;2022-09-16T11:46:16;12.90;99.90
15115;DHT22;7658;51.456;7.622;2022-09-16T11:55:33;13.00;99.90
15115;DHT22;7658;51.456;7.622;2022-09-16T11:57:30;13.00;99.90
15115;DHT22;7658;51.456;7.622;2022-09-16T12:00:19;13.30;99.90
15115;DHT22;7658;51.456;7.622;2022-09-16T12:02:57;13.70;99.90
15115;DHT22;7658;51.456;7.622;2022-09-16T12:13:08;15.00;99.90
15115;DHT22;7658;51.456;7.622;2022-09-16T12:15:53;14.90;99.90
15115;DHT22;7658;51.456;7.622;2022-09-16T12:18:27;14.60;99.90
15115;DHT22;7658;51.456;7.622;2022-09-16T12:23:40;14.10;99.90
15115;DHT22;7658;51.456;7.622;2022-09-16T12:26:29;13.80;99.90
15115;DHT22;7658;51.456;7.622;2022-09-16T12:32:04;13.00;99.90
15115;DHT22;7658;51.456;7.622;2022-09-16T12:35:03;12.60;99.90
15115;DHT22;7658;51.456;7.622;2022-09-16T12:37:46;12.00;99.90
15115;DHT22;7658;51.456;7.622;2022-09-16T12:40:34;11.60;99.90
15115;DHT22;7658;51.456;7.622;2022-09-16T12:48:35;11.30;99.90
15115;DHT22;7658;51.456;7.622;2022-09-16T12:59:36;11.20;99.90
15115;DHT22;7658;51.456;7.622;2022-09-16T13:02:18;11.10;99.90
15115;DHT22;7658;51.456;7.622;2022-09-16T13:04:48;11.00;99.90
15115;DHT22;7658;51.456;7.622;2022-09-16T13:07:27;11.00;99.90
15115;DHT22;7658;51.456;7.622;2022-09-16T13:10:15;11.00;99.90
15115;DHT22;7658;51.456;7.622;2022-09-16T13:12:41;11.00;99.90
15115;DHT22;7658;51.456;7.622;2022-09-16T13:15:40;11.00;99.90
15115;DHT22;7658;51.456;7.622;2022-09-16T13:21:21;10.90;99.90
15115;DHT22;7658;51.456;7.622;2022-09-16T13:24:02;11.10;99.90
15115;DHT22;7658;51.456;7.622;2022-09-16T13:26:42;11.30;99.90
15115;DHT22;7658;51.456;7.622;2022-09-16T13:32:02;11.20;99.90
15115;DHT22;7658;51.456;7.622;2022-09-16T13:34:28;11.10;99.90
15115;DHT22;7658;51.456;7.622;2022-09-16T13:36:55;11.00;99.90
15115;DHT22;7658;51.456;7.622;2022-09-16T13:39:33;11.00;99.90
15115;DHT22;7658;51.456;7.622;2022-09-16T13:42:15;11.10;99.90
15115;DHT22;7658;51.456;7.622;2022-09-16T13:44:42;11.10;99.90
15115;DHT22;7658;51.456;7.622;2022-09-16T13:49:38;11.10;99.90
15115;DHT22;7658;51.456;7.622;2022-09-16T13:52:10;11.10;99.90
15115;DHT22;7658;51.456;7.622;2022-09-16T13:54:51;11.00;99.90
15115;DHT22;7658;51.456;7.622;2022-09-16T13:57:35;11.00;99.90
15115;DHT22;7658;51.456;7.622;2022-09-16T14:00:10;10.80;99.90
15115;DHT22;7658;51.456;7.622;2022-09-16T14:13:55;10.60;99.90
15115;DHT22;7658;51.456;7.622;2022-09-16T14:16:24;10.60;99.90
15115;DHT22;7658;51.456;7.622;2022-09-16T14:19:05;10.70;99.90
15115;DHT22;7658;51.456;7.622;2022-09-16T14:21:31;10.60;99.90
15115;DHT22;7658;51.456;7.622;2022-09-16T14:24:33;10.60;99.90
15115;DHT22;7658;51.456;7.622;2022-09-16T14:26:59;10.60;99.90
15115;DHT22;7658;51.456;7.622;2022-09-16T14:29:25;10.70;99.90
15115;DHT22;7658;51.456;7.622;2022-09-16T14:31:53;10.70;99.90
15115;DHT22;7658;51.456;7.622;2022-09-16T14:34:35;10.80;99.90
15115;DHT22;7658;51.456;7.622;2022-09-16T14:37:03;10.90;99.90
15115;DHT22;7658;51.456;7.622;2022-09-16T14:39:30;11.10;99.90
15115;DHT22;7658;51.456;7.622;2022-09-16T14:42:03;11.10;99.90
15115;DHT22;7658;51.456;7.622;2022-09-16T14:47:16;11.50;99.90
15115;DHT22;7658;51.456;7.622;2022-09-16T14:49:43;11.60;99.90
15115;DHT22;7658;51.456;7.622;2022-09-16T14:52:25;11.70;99.90
15115;DHT22;7658;51.456;7.622;2022-09-16T14:54:51;11.70;99.90
15115;DHT22;7658;51.456;7.622;2022-09-16T14:57:29;11.50;99.90
15115;DHT22;7658;51.456;7.622;2022-09-16T15:00:02;11.30;99.90
15115;DHT22;7658;51.456;7.622;2022-09-16T15:02:57;11.30;99.90
15115;DHT22;7658;51.456;7.622;2022-09-16T15:05:34;11.30;99.90
15115;DHT22;7658;51.456;7.622;2022-09-16T15:08:23;11.40;99.90
15115;DHT22;7658;51.456;7.622;2022-09-16T15:10:53;11.40;99.90
15115;DHT22;7658;51.456;7.622;2022-09-16T15:13:25;11.40;99.90
15115;DHT22;7658;51.456;7.622;2022-09-16T15:15:56;11.50;99.90
15115;DHT22;7658;51.456;7.622;2022-09-16T15:18:23;11.60;99.90
15115;DHT22;7658;51.456;7.622;2022-09-16T15:21:00;11.60;99.90
15115;DHT22;7658;51.456;7.622;2022-09-16T15:23:28;11.70;99.90
15115;DHT22;7658;51.456;7.622;2022-09-16T15:26:08;11.80;99.90
15115;DHT22;7658;51.456;7.622;2022-09-16T15:28:34;11.80;99.90
15115;DHT22;7658;51.456;7.622;2022-09-16T15:31:00;11.90;99.90
15115;DHT22;7658;51.456;7.622;2022-09-16T15:33:35;11.90;99.90
15115;DHT22;7658;51.456;7.622;2022-09-16T15:36:01;12.00;99.90
15115;DHT22;7658;51.456;7.622;2022-09-16T15:38:27;12.00;99.90
15115;DHT22;7658;51.456;7.622;2022-09-16T15:41:10;12.10;99.90
15115;DHT22;7658;51.456;7.622;2022-09-16T15:43:42;12.10;99.90
15115;DHT22;7658;51.456;7.622;2022-09-16T15:46:18;12.10;99.90
15115;DHT22;7658;51.456;7.622;2022-09-16T15:48:54;12.20;99.90
15115;DHT22;7658;51.456;7.622;2022-09-16T15:51:22;12.30;99.90
15115;DHT22;7658;51.456;7.622;2022-09-16T15:53:49;12.40;99.90
15115;DHT22;7658;51.456;7.622;2022-09-16T15:56:38;12.30;99.90
15115;DHT22;7658;51.456;7.622;2022-09-16T16:02:44;12.30;99.90
15115;DHT22;7658;51.456;7.622;2022-09-16T16:05:15;12.30;99.90
15115;DHT22;7658;51.456;7.622;2022-09-16T16:07:48;12.30;99.90
15115;DHT22;7658;51.456;7.622;2022-09-16T16:10:19;12.30;99.90
15115;DHT22;7658;51.456;7.622;2022-09-16T16:12:47;12.30;99.90
15115;DHT22;7658;51.456;7.622;2022-09-16T16:15:18;12.30;99.90
15115;DHT22;7658;51.456;7.622;2022-09-16T16:17:46;12.30;99.90
15115;DHT22;7658;51.456;7.622;2022-09-16T16:20:13;12.30;99.90
15115;DHT22;7658;51.456;7.622;2022-09-16T16:22:39;12.30;99.90
15115;DHT22;7658;51.456;7.622;2022-09-16T16:25:06;12.30;99.90
15115;DHT22;7658;51.456;7.622;2022-09-16T16:27:32;12.30;99.90
15115;DHT22;7658;51.456;7.622;2022-09-16T16:29:58;12.40;99.90
15115;DHT22;7658;51.456;7.622;2022-09-16T16:32:24;12.40;99.90
15115;DHT22;7658;51.456;7.622;2022-09-16T16:34:50;12.40;99.90
15115;DHT22;7658;51.456;7.622;2022-09-16T16:37:17;12.30;99.90
15115;DHT22;7658;51.456;7.622;2022-09-16T16:39:44;12.10;99.90
15115;DHT22;7658;51.456;7.622;2022-09-16T16:42:14;11.80;99.90
15115;DHT22;7658;51.456;7.622;2022-09-16T16:44:40;11.70;99.90
15115;DHT22;7658;51.456;7.622;2022-09-16T16:47:07;11.50;99.90
15115;DHT22;7658;51.456;7.622;2022-09-16T16:49:33;11.40;99.90
15115;DHT22;7658;51.456;7.622;2022-09-16T16:51:59;11.40;99.90
15115;DHT22;7658;51.456;7.622;2022-09-16T16:54:26;11.30;99.90
15115;DHT22;7658;51.456;7.622;2022-09-16T16:56:52;11.30;99.90
15115;DHT22;7658;51.456;7.622;2022-09-16T16:59:18;11.30;99.90
15115;DHT22;7658;51.456;7.622;2022-09-16T17:01:46;11.20;99.90
15115;DHT22;7658;51.456;7.622;2022-09-16T17:04:12;11.20;99.90
15115;DHT22;7658;51.456;7.622;2022-09-16T17:06:38;11.20;99.90
15115;DHT22;7658;51.456;7.622;2022-09-16T17:09:06;11.10;99.90
15115;DHT22;7658;51.456;7.622;2022-09-16T17:11:33;11.10;99.90
15115;DHT22;7658;51.456;7.622;2022-09-16T17:14:01;11.10;99.90
15115;DHT22;7658;51.456;7.622;2022-09-16T17:16:27;11.00;99.90
15115;DHT22;7658;51.456;7.622;2022-09-16T17:18:55;11.00;99.90
15115;DHT22;7658;51.456;7.622;2022-09-16T17:21:28;11.00;99.90
15115;DHT22;7658;51.456;7.622;2022-09-16T17:23:54;11.00;99.90
15115;DHT22;7658;51.456;7.622;2022-09-16T17:26:20;10.90;99.90
15115;DHT22;7658;51.456;7.622;2022-09-16T17:28:48;11.00;99.90
15115;DHT22;7658;51.456;7.622;2022-09-16T17:31:26;11.00;99.90
15115;DHT22;7658;51.456;7.622;2022-09-16T17:33:59;10.90;99.90
15115;DHT22;7658;51.456;7.622;2022-09-16T17:36:28;10.90;99.90
15115;DHT22;7658;51.456;7.622;2022-09-16T17:39:03;10.80;99.90
15115;DHT22;7658;51.456;7.622;2022-09-16T17:41:29;10.80;99.90
15115;DHT22;7658;51.456;7.622;2022-09-16T17:43:56;10.80;99.90
15115;DHT22;7658;51.456;7.622;2022-09-16T17:46:24;10.70;99.90
15115;DHT22;7658;51.456;7.622;2022-09-16T17:48:52;10.60;99.90
15115;DHT22;7658;51.456;7.622;2022-09-16T17:51:18;10.50;99.90
15115;DHT22;7658;51.456;7.622;2022-09-16T17:53:44;10.50;99.90
15115;DHT22;7658;51.456;7.622;2022-09-16T17:56:14;10.40;99.90
15115;DHT22;7658;51.456;7.622;2022-09-16T17:58:44;10.30;99.90
15115;DHT22;7658;51.456;7.622;2022-09-16T18:01:16;10.30;99.90
15115;DHT22;7658;51.456;7.622;2022-09-16T18:03:44;10.20;99.90
15115;DHT22;7658;51.456;7.622;2022-09-16T18:06:19;10.20;99.90
15115;DHT22;7658;51.456;7.622;2022-09-16T18:08:46;10.10;99.90
15115;DHT22;7658;51.456;7.622;2022-09-16T18:11:14;10.20;99.90
15115;DHT22;7658;51.456;7.622;2022-09-16T18:13:40;10.10;99.90
15115;DHT22;7658;51.456;7.622;2022-09-16T18:16:15;10.10;99.90
15115;DHT22;7658;51.456;7.622;2022-09-16T18:18:42;10.10;99.90
15115;DHT22;7658;51.456;7.622;2022-09-16T18:21:10;10.00;99.90
15115;DHT22;7658;51.456;7.622;2022-09-16T18:23:36;10.00;99.90
15115;DHT22;7658;51.456;7.622;2022-09-16T18:26:07;10.00;99.90
15115;DHT22;7658;51.456;7.622;2022-09-16T18:28:37;9.90;99.90
15115;DHT22;7658;51.456;7.622;2022-09-16T18:31:06;10.00;99.90
15115;DHT22;7658;51.456;7.622;2022-09-16T18:33:33;10.00;99.90
15115;DHT22;7658;51.456;7.622;2022-09-16T18:36:05;10.10;99.90
15115;DHT22;7658;51.456;7.622;2022-09-16T18:38:32;10.10;99.90
15115;DHT22;7658;51.456;7.622;2022-09-16T18:41:16;10.00;99.90
15115;DHT22;7658;51.456;7.622;2022-09-16T18:43:44;10.00;99.90
15115;DHT22;7658;51.456;7.622;2022-09-16T18:46:18;9.90;99.90
15115;DHT22;7658;51.456;7.622;2022-09-16T18:48:46;9.80;99.90
15115;DHT22;7658;51.456;7.622;2022-09-16T18:51:29;9.90;99.90
15115;DHT22;7658;51.456;7.622;2022-09-16T18:53:57;9.90;99.90
15115;DHT22;7658;51.456;7.622;2022-09-16T18:56:26;9.90;99.90
15115;DHT22;7658;51.456;7.622;2022-09-16T18:58:53;9.90;99.90
15115;DHT22;7658;51.456;7.622;2022-09-16T19:01:27;10.00;99.90
15115;DHT22;7658;51.456;7.622;2022-09-16T19:03:55;10.00;99.90
15115;DHT22;7658;51.456;7.622;2022-09-16T19:06:22;10.10;99.90